createdAt,value
2023-03-28T00:02:08.194Z,99349.66
2023-03-28T00:04:55.295Z,99349.75
2023-03-28T00:07:42.696Z,99344.72
2023-03-28T00:10:30.068Z,99343.84
2023-03-28T00:13:20.029Z,99371.06
2023-03-28T00:16:10.205Z,99367.50
2023-03-28T00:18:57.232Z,99366.81
2023-03-28T00:21:50.074Z,99378.09
2023-03-28T00:24:39.065Z,99377.88
2023-03-28T00:27:26.333Z,99380.44
2023-03-28T00:30:13.407Z,99386.41
2023-03-28T00:33:00.540Z,99371.56
2023-03-28T00:35:47.656Z,99382.16
2023-03-28T00:38:34.797Z,99394.97
2023-03-28T00:41:23.004Z,99378.16
2023-03-28T00:44:42.770Z,99399.13
2023-03-28T00:47:44.108Z,99399.25
2023-03-28T00:50:46.682Z,99366.34
2023-03-28T00:53:34.005Z,99370.47
2023-03-28T00:56:25.370Z,99374.66
2023-03-28T00:59:17.691Z,99382.31
2023-03-28T01:02:05.646Z,99389.50
2023-03-28T01:05:00.006Z,99386.41
2023-03-28T01:07:51.573Z,99383.69
2023-03-28T01:10:38.975Z,99385.31
2023-03-28T01:13:30.366Z,99399.63
2023-03-28T01:16:20.386Z,99404.84
2023-03-28T01:19:21.927Z,99410.13
2023-03-28T01:22:56.490Z,99409.28
2023-03-28T01:26:05.058Z,99419.34
2023-03-28T01:29:10.462Z,99409.97
2023-03-28T01:32:35.080Z,99419.69
2023-03-28T01:35:46.651Z,99415.00
2023-03-28T01:38:54.785Z,99432.50
2023-03-28T01:42:08.932Z,99430.47
2023-03-28T01:45:34.534Z,99445.38
2023-03-28T01:48:25.315Z,99446.94
2023-03-28T01:51:25.259Z,99448.28
2023-03-28T01:54:39.434Z,99446.94
2023-03-28T01:57:38.386Z,99443.84
2023-03-28T02:00:33.810Z,99446.25
2023-03-28T02:03:27.946Z,99444.34
2023-03-28T02:06:17.305Z,99441.00
2023-03-28T02:09:06.066Z,99431.63
2023-03-28T02:12:19.390Z,99445.53
2023-03-28T02:15:10.663Z,99460.69
2023-03-28T02:18:07.053Z,99455.84
2023-03-28T02:21:01.054Z,99464.81
2023-03-28T02:23:54.168Z,99453.47
2023-03-28T02:26:41.728Z,99467.84
2023-03-28T02:29:30.765Z,99454.16
2023-03-28T02:32:21.847Z,99464.28
2023-03-28T02:35:09.243Z,99463.34
2023-03-28T02:38:16.823Z,99460.97
2023-03-28T02:41:37.055Z,99465.91
2023-03-28T02:44:31.116Z,99476.94
2023-03-28T02:47:24.247Z,99482.72
2023-03-28T02:50:17.386Z,99489.13
2023-03-28T02:53:14.652Z,99484.59
2023-03-28T02:56:32.111Z,99490.41
2023-03-28T02:59:27.725Z,99487.75
2023-03-28T03:02:21.599Z,99481.38
2023-03-28T03:05:09.855Z,99491.56
2023-03-28T03:07:56.987Z,99488.22
2023-03-28T03:10:44.052Z,99469.66
2023-03-28T03:13:31.501Z,99501.19
2023-03-28T03:16:18.638Z,99448.09
2023-03-28T03:19:05.894Z,99486.34
2023-03-28T03:21:54.310Z,99489.75
2023-03-28T03:24:41.371Z,99489.63
2023-03-28T03:27:28.410Z,99494.06
2023-03-28T03:30:15.550Z,99502.94
2023-03-28T03:33:02.802Z,99475.06
2023-03-28T03:35:50.187Z,99495.84
2023-03-28T03:38:37.276Z,99495.75
2023-03-28T03:41:24.377Z,99504.81
2023-03-28T03:44:11.428Z,99500.97
2023-03-28T03:46:58.718Z,99511.28
2023-03-28T03:49:46.017Z,99514.13
2023-03-28T03:52:33.071Z,99508.31
2023-03-28T03:55:20.955Z,99512.16
2023-03-28T03:58:08.096Z,99509.94
2023-03-28T04:00:55.877Z,99509.28
2023-03-28T04:03:43.434Z,99520.97
2023-03-28T04:06:30.568Z,99473.97
2023-03-28T04:09:17.683Z,99503.22
2023-03-28T04:12:08.436Z,99516.91
2023-03-28T04:14:55.502Z,99521.59
2023-03-28T04:17:44.485Z,99514.50
2023-03-28T04:20:31.889Z,99517.34
2023-03-28T04:23:20.500Z,99511.16
2023-03-28T04:26:08.906Z,99507.41
2023-03-28T04:28:57.330Z,99533.75
2023-03-28T04:31:51.720Z,99526.31
2023-03-28T04:34:39.271Z,99542.66
2023-03-28T04:37:27.844Z,99545.31
2023-03-28T04:40:16.309Z,99535.56
2023-03-28T04:43:03.412Z,99545.00
2023-03-28T04:45:50.619Z,99552.03
2023-03-28T04:48:37.836Z,99557.22
2023-03-28T04:51:25.307Z,99558.25
2023-03-28T04:54:12.400Z,99558.50
2023-03-28T04:56:59.523Z,99557.50
2023-03-28T04:59:46.615Z,99559.19
2023-03-28T05:02:33.699Z,99543.72
2023-03-28T05:05:21.069Z,99550.25
2023-03-28T05:08:08.531Z,99555.09
2023-03-28T05:10:56.128Z,99574.06
2023-03-28T05:13:43.222Z,99559.53
2023-03-28T05:16:30.662Z,99558.78
2023-03-28T05:19:18.276Z,99562.88
2023-03-28T05:22:05.357Z,99571.81
2023-03-28T05:24:52.448Z,99581.25
2023-03-28T05:27:39.533Z,99570.47
2023-03-28T05:30:26.816Z,99590.44
2023-03-28T05:33:14.064Z,99565.97
2023-03-28T05:36:02.160Z,99577.66
2023-03-28T05:38:49.868Z,99587.81
2023-03-28T05:41:36.932Z,99579.09
2023-03-28T05:44:24.071Z,99585.63
2023-03-28T05:47:11.186Z,99589.44
2023-03-28T05:49:58.500Z,99608.84
2023-03-28T05:52:45.536Z,99595.31
2023-03-28T05:55:33.805Z,99599.69
2023-03-28T05:58:22.563Z,99583.28
2023-03-28T06:01:10.136Z,99579.09
2023-03-28T06:03:58.562Z,99616.69
2023-03-28T06:06:45.835Z,99611.47
2023-03-28T06:09:34.982Z,99610.91
2023-03-28T06:12:22.073Z,99622.06
2023-03-28T06:15:10.086Z,99632.00
2023-03-28T06:17:58.236Z,99628.59
2023-03-28T06:20:45.630Z,99622.50
2023-03-28T06:23:32.800Z,99626.09
2023-03-28T06:26:19.951Z,99609.53
2023-03-28T06:29:07.256Z,99615.53
2023-03-28T06:31:54.578Z,99636.69
2023-03-28T06:34:41.753Z,99631.13
2023-03-28T06:37:28.812Z,99633.28
2023-03-28T06:40:16.207Z,99627.81
2023-03-28T06:43:03.318Z,99637.88
2023-03-28T06:45:50.487Z,99614.13
2023-03-28T06:48:37.817Z,99643.09
2023-03-28T06:51:25.489Z,99630.38
2023-03-28T06:54:12.548Z,99643.84
2023-03-28T06:56:59.731Z,99631.00
2023-03-28T06:59:46.825Z,99654.06
2023-03-28T07:02:34.217Z,99647.75
2023-03-28T07:05:21.309Z,99648.38
2023-03-28T07:08:10.373Z,99649.75
2023-03-28T07:10:57.558Z,99639.78
2023-03-28T07:13:44.879Z,99650.38
2023-03-28T07:16:32.089Z,99650.16
2023-03-28T07:19:19.316Z,99647.25
2023-03-28T07:22:06.440Z,99647.28
2023-03-28T07:24:53.757Z,99653.34
2023-03-28T07:27:41.558Z,99650.91
2023-03-28T07:30:28.692Z,99663.34
2023-03-28T07:33:21.509Z,99658.47
2023-03-28T07:36:16.731Z,99657.22
2023-03-28T07:39:05.138Z,99665.84
2023-03-28T07:41:52.201Z,99667.09
2023-03-28T07:44:41.810Z,99664.53
2023-03-28T07:47:30.701Z,99669.50
2023-03-28T07:50:17.926Z,99662.75
2023-03-28T07:53:04.983Z,99656.38
2023-03-28T07:55:55.696Z,99651.47
2023-03-28T07:58:43.405Z,99663.25
2023-03-28T08:01:30.437Z,99645.78
2023-03-28T08:04:17.937Z,99669.31
2023-03-28T08:07:07.764Z,99665.59
2023-03-28T08:09:57.078Z,99671.56
2023-03-28T08:12:46.173Z,99669.66
2023-03-28T08:15:33.308Z,99692.88
2023-03-28T08:18:24.581Z,99667.19
2023-03-28T08:21:11.707Z,99666.91
2023-03-28T08:23:59.216Z,99677.03
2023-03-28T08:26:48.604Z,99675.31
2023-03-28T08:29:36.044Z,99690.94
2023-03-28T08:32:23.213Z,99672.41
2023-03-28T08:35:10.930Z,99682.13
2023-03-28T08:37:58.158Z,99705.31
2023-03-28T08:40:56.812Z,99684.91
2023-03-28T08:43:58.978Z,99719.63
2023-03-28T08:46:50.397Z,99682.00
2023-03-28T08:49:48.627Z,99694.56
2023-03-28T08:52:39.767Z,99696.72
2023-03-28T08:55:38.663Z,99719.13
2023-03-28T08:58:31.744Z,99720.75
2023-03-28T09:01:22.363Z,99713.97
2023-03-28T09:04:22.461Z,99726.41
2023-03-28T09:07:15.718Z,99713.75
2023-03-28T09:10:34.874Z,99720.63
2023-03-28T09:13:27.861Z,99723.47
2023-03-28T09:16:33.263Z,99728.16
2023-03-28T09:19:37.069Z,99718.00
2023-03-28T09:22:52.982Z,99697.78
2023-03-28T09:25:57.894Z,99734.13
2023-03-28T09:29:02.149Z,99715.16
2023-03-28T09:31:51.440Z,99732.53
2023-03-28T09:34:45.050Z,99761.22
2023-03-28T09:37:41.066Z,99752.75
2023-03-28T09:40:33.590Z,99741.38
2023-03-28T09:43:46.200Z,99765.47
2023-03-28T09:46:47.072Z,99795.59
2023-03-28T09:49:34.481Z,99794.47
2023-03-28T09:52:22.166Z,99805.88
2023-03-28T09:55:18.078Z,99795.56
2023-03-28T09:58:11.484Z,99783.41
2023-03-28T10:00:58.788Z,99780.59
2023-03-28T10:03:54.373Z,99789.00
2023-03-28T10:06:43.078Z,99792.25
2023-03-28T10:09:30.179Z,99767.94
2023-03-28T10:12:32.135Z,99762.69
2023-03-28T10:15:45.457Z,99781.84
2023-03-28T10:18:33.125Z,99754.78
2023-03-28T10:21:26.615Z,99754.59
2023-03-28T10:24:17.394Z,99728.41
2023-03-28T10:27:14.897Z,99737.97
2023-03-28T10:30:25.538Z,99800.28
2023-03-28T10:33:18.526Z,99799.72
2023-03-28T10:36:09.852Z,99783.06
2023-03-28T10:38:57.635Z,99769.88
2023-03-28T10:41:58.149Z,99770.53
2023-03-28T10:44:59.019Z,99777.31
2023-03-28T10:47:47.193Z,99791.72
2023-03-28T10:50:43.774Z,99810.53
2023-03-28T10:54:00.361Z,99864.22
2023-03-28T10:56:53.487Z,99871.81
2023-03-28T11:00:02.100Z,99846.34
2023-03-28T11:03:26.488Z,99822.19
2023-03-28T11:06:16.582Z,99800.50
2023-03-28T11:09:31.853Z,99778.06
2023-03-28T11:12:51.259Z,99781.06
2023-03-28T11:15:47.190Z,99755.28
2023-03-28T11:18:37.221Z,99760.44
2023-03-28T11:22:04.545Z,99749.81
2023-03-28T11:25:19.390Z,99782.72
2023-03-28T11:28:18.516Z,99843.47
2023-03-28T11:31:06.102Z,99829.25
2023-03-28T11:34:06.541Z,99827.22
2023-03-28T11:37:01.017Z,99781.19
2023-03-28T11:39:56.003Z,99843.47
2023-03-28T11:43:10.094Z,99815.97
2023-03-28T11:46:13.996Z,99832.84
2023-03-28T11:49:12.506Z,99827.81
2023-03-28T11:52:11.409Z,99830.19
2023-03-28T11:55:21.540Z,99816.88
2023-03-28T11:58:30.046Z,99798.44
2023-03-28T12:01:29.070Z,99798.09
2023-03-28T12:04:39.391Z,99778.41
2023-03-28T12:07:36.078Z,99789.81
2023-03-28T12:10:26.390Z,99777.53
2023-03-28T12:13:21.051Z,99789.03
2023-03-28T12:16:13.024Z,99784.19
2023-03-28T12:19:03.549Z,99777.81
2023-03-28T12:21:59.662Z,99783.84
2023-03-28T12:24:57.311Z,99787.47
2023-03-28T12:27:45.425Z,99817.13
2023-03-28T12:30:45.579Z,99834.47
2023-03-28T12:33:43.616Z,99830.22
2023-03-28T12:36:39.480Z,99832.09
2023-03-28T12:40:20.065Z,99871.63
2023-03-28T12:43:09.105Z,99857.47
2023-03-28T12:46:01.085Z,99809.13
2023-03-28T12:49:22.480Z,99817.34
2023-03-28T12:52:19.332Z,99791.88
2023-03-28T12:55:26.642Z,99789.41
2023-03-28T12:58:36.043Z,99786.72
2023-03-28T13:01:33.836Z,99795.66
2023-03-28T13:04:58.902Z,99777.72
2023-03-28T13:07:58.343Z,99790.91
2023-03-28T13:11:07.875Z,99793.44
2023-03-28T13:14:19.504Z,99813.22
2023-03-28T13:17:23.777Z,99800.97
2023-03-28T13:20:16.895Z,99801.59
2023-03-28T13:23:08.088Z,99767.72
2023-03-28T13:25:57.529Z,99797.09
2023-03-28T13:28:51.750Z,99788.13
2023-03-28T13:31:43.719Z,99776.06
2023-03-28T13:34:34.002Z,99773.75
2023-03-28T13:37:24.009Z,99814.22
2023-03-28T13:40:29.721Z,99875.38
2023-03-28T13:43:41.885Z,99835.06
2023-03-28T13:46:43.888Z,99821.56
2023-03-28T13:49:31.068Z,99844.25
2023-03-28T13:52:22.013Z,99805.94
2023-03-28T13:55:22.651Z,99850.06
2023-03-28T13:58:13.500Z,99821.38
2023-03-28T14:01:16.792Z,99817.72
2023-03-28T14:04:16.052Z,99812.78
2023-03-28T14:07:03.190Z,99815.31
2023-03-28T14:09:51.280Z,99805.84
2023-03-28T14:12:38.464Z,99830.75
2023-03-28T14:15:30.237Z,99878.19
2023-03-28T14:18:24.865Z,99883.66
2023-03-28T14:21:12.254Z,99859.78
2023-03-28T14:24:02.211Z,99845.59
2023-03-28T14:26:50.510Z,99856.19
2023-03-28T14:29:52.071Z,99870.81
2023-03-28T14:32:54.510Z,99883.56
2023-03-28T14:35:57.477Z,99892.41
2023-03-28T14:38:44.629Z,99870.16
2023-03-28T14:41:35.980Z,99867.91
2023-03-28T14:44:23.766Z,99861.03
2023-03-28T14:47:32.500Z,99844.53
2023-03-28T14:50:21.958Z,99847.16
2023-03-28T14:53:22.515Z,99846.09
2023-03-28T14:56:14.244Z,99836.38
2023-03-28T14:59:04.061Z,99815.16
2023-03-28T15:01:52.536Z,99778.53
2023-03-28T15:04:39.796Z,99804.69
2023-03-28T15:07:28.559Z,99806.03
2023-03-28T15:10:19.751Z,99821.66
2023-03-28T15:13:18.359Z,99821.66
2023-03-28T15:16:08.386Z,99824.56
2023-03-28T15:19:07.308Z,99826.31
2023-03-28T15:22:09.929Z,99841.34
2023-03-28T15:24:58.282Z,99864.13
2023-03-28T15:27:51.699Z,99848.94
2023-03-28T15:30:44.366Z,99845.97
2023-03-28T15:33:46.388Z,99834.72
2023-03-28T15:36:34.850Z,99845.72
2023-03-28T15:39:28.161Z,99841.13
2023-03-28T15:42:21.748Z,99825.75
2023-03-28T15:45:22.837Z,99829.59
2023-03-28T15:48:16.526Z,99831.09
2023-03-28T15:51:07.025Z,99837.53
2023-03-28T15:53:55.488Z,99830.78
2023-03-28T15:56:48.023Z,99846.13
2023-03-28T15:59:42.414Z,99843.47
2023-03-28T16:02:33.462Z,99848.59
2023-03-28T16:05:34.922Z,99849.56
2023-03-28T16:08:34.951Z,99850.16
2023-03-28T16:11:24.171Z,99853.91
2023-03-28T16:14:18.277Z,99855.19
2023-03-28T16:17:10.486Z,99857.06
2023-03-28T16:19:59.240Z,99833.06
2023-03-28T16:22:46.902Z,99842.41
2023-03-28T16:25:34.434Z,99858.19
2023-03-28T16:28:21.555Z,99865.25
2023-03-28T16:31:13.562Z,99856.59
2023-03-28T16:34:00.779Z,99867.38
2023-03-28T16:36:47.812Z,99869.06
2023-03-28T16:39:36.263Z,99885.53
2023-03-28T16:42:24.806Z,99886.72
2023-03-28T16:45:13.892Z,99901.09
2023-03-28T16:48:08.274Z,99894.34
2023-03-28T16:50:56.391Z,99892.53
2023-03-28T16:53:44.704Z,99888.56
2023-03-28T16:56:32.675Z,99896.88
2023-03-28T16:59:21.003Z,99899.78
2023-03-28T17:02:09.834Z,99902.19
2023-03-28T17:04:57.360Z,99901.63
2023-03-28T17:07:44.951Z,99898.63
2023-03-28T17:10:32.328Z,99902.50
2023-03-28T17:13:19.779Z,99914.78
2023-03-28T17:16:08.729Z,99903.34
2023-03-28T17:18:57.176Z,99892.91
2023-03-28T17:21:44.828Z,99910.13
2023-03-28T17:24:32.724Z,99909.09
2023-03-28T17:27:22.516Z,99917.34
2023-03-28T17:30:13.346Z,99908.50
2023-03-28T17:33:05.393Z,99921.16
2023-03-28T17:35:53.656Z,99884.03
2023-03-28T17:38:41.621Z,99924.69
2023-03-28T17:41:30.315Z,99868.44
2023-03-28T17:44:18.732Z,99939.22
2023-03-28T17:47:07.272Z,99923.09
2023-03-28T17:49:58.044Z,99944.88
2023-03-28T17:52:46.961Z,99924.53
2023-03-28T17:55:36.495Z,99951.34
2023-03-28T17:58:26.339Z,99950.09
2023-03-28T18:01:19.879Z,99960.56
2023-03-28T18:04:08.751Z,99950.47
2023-03-28T18:06:58.577Z,99926.16
2023-03-28T18:09:47.231Z,99964.63
2023-03-28T18:12:36.317Z,99959.75
2023-03-28T18:15:25.346Z,99956.72
2023-03-28T18:18:13.448Z,99968.97
2023-03-28T18:21:03.798Z,99959.53
2023-03-28T18:23:52.268Z,99972.63
2023-03-28T18:26:40.762Z,99987.31
2023-03-28T18:29:32.041Z,99974.84
2023-03-28T18:32:22.968Z,99960.88
2023-03-28T18:35:13.457Z,99980.81
2023-03-28T18:38:02.610Z,99974.75
2023-03-28T18:40:54.416Z,99973.28
2023-03-28T18:43:44.517Z,99979.53
2023-03-28T18:46:34.773Z,99969.84
2023-03-28T18:49:26.906Z,99982.44
2023-03-28T18:52:17.858Z,99963.69
2023-03-28T18:55:11.151Z,99964.56
2023-03-28T18:58:00.465Z,99980.03
2023-03-28T19:00:55.427Z,99970.72
2023-03-28T19:03:46.237Z,99969.50
2023-03-28T19:06:38.501Z,99965.91
2023-03-28T19:09:28.021Z,99956.63
2023-03-28T19:12:17.638Z,99957.94
2023-03-28T19:15:11.662Z,99972.47
2023-03-28T19:18:02.266Z,99956.50
2023-03-28T19:20:55.571Z,99961.72
2023-03-28T19:23:44.060Z,99974.19
2023-03-28T19:26:32.588Z,99986.59
2023-03-28T19:29:22.789Z,99965.09
2023-03-28T19:32:10.492Z,99979.28
2023-03-28T19:34:58.268Z,99956.44
2023-03-28T19:37:47.509Z,99966.41
2023-03-28T19:40:35.627Z,99970.22
2023-03-28T19:43:24.631Z,99923.31
2023-03-28T19:46:19.080Z,99963.97
2023-03-28T19:49:13.160Z,99951.59
2023-03-28T19:52:01.396Z,99951.16
2023-03-28T19:54:49.336Z,99951.44
2023-03-28T19:57:37.947Z,99938.44
2023-03-28T20:00:27.386Z,99956.28
2023-03-28T20:03:21.107Z,99947.94
2023-03-28T20:06:12.655Z,99956.72
2023-03-28T20:09:02.491Z,99957.44
2023-03-28T20:11:51.370Z,99924.06
2023-03-28T20:14:39.135Z,99954.44
2023-03-28T20:17:28.204Z,99945.91
2023-03-28T20:20:15.993Z,99945.97
2023-03-28T20:23:04.228Z,99944.66
2023-03-28T20:25:53.845Z,99922.94
2023-03-28T20:28:41.809Z,99940.41
2023-03-28T20:31:29.558Z,99942.13
2023-03-28T20:34:18.902Z,99940.78
2023-03-28T20:37:06.753Z,99927.94
2023-03-28T20:39:55.377Z,99945.69
2023-03-28T20:42:52.859Z,99938.41
2023-03-28T20:45:46.197Z,99941.13
2023-03-28T20:48:36.953Z,99929.56
2023-03-28T20:51:26.120Z,99937.78
2023-03-28T20:54:14.041Z,99938.41
2023-03-28T20:57:01.149Z,99935.47
2023-03-28T20:59:48.615Z,99943.13
2023-03-28T21:02:36.509Z,99931.84
2023-03-28T21:05:25.107Z,99941.25
2023-03-28T21:08:14.420Z,99934.59
2023-03-28T21:11:03.892Z,99942.25
2023-03-28T21:13:51.211Z,99930.94
2023-03-28T21:16:38.620Z,99941.91
2023-03-28T21:19:26.270Z,99923.06
2023-03-28T21:22:13.425Z,99932.13
2023-03-28T21:25:05.428Z,99938.19
2023-03-28T21:27:52.870Z,99932.38
2023-03-28T21:30:40.368Z,99925.31
2023-03-28T21:33:28.925Z,99925.91
2023-03-28T21:36:17.811Z,99918.78
2023-03-28T21:39:05.206Z,99921.81
2023-03-28T21:41:52.468Z,99918.44
2023-03-28T21:44:39.557Z,99907.00
2023-03-28T21:47:26.849Z,99900.06
2023-03-28T21:50:15.313Z,99903.06
2023-03-28T21:53:02.364Z,99908.94
2023-03-28T21:55:51.214Z,99905.69
2023-03-28T21:58:38.379Z,99898.75
2023-03-28T22:01:25.632Z,99894.94
2023-03-28T22:04:12.721Z,99888.09
2023-03-28T22:06:59.833Z,99898.75
2023-03-28T22:09:51.096Z,99903.19
2023-03-28T22:12:38.169Z,99899.88
2023-03-28T22:15:26.048Z,99919.97
2023-03-28T22:18:13.422Z,99917.41
2023-03-28T22:21:02.748Z,99910.81
2023-03-28T22:23:50.027Z,99936.94
2023-03-28T22:26:37.103Z,99928.75
2023-03-28T22:29:24.172Z,99922.28
2023-03-28T22:32:11.489Z,99927.44
2023-03-28T22:34:58.582Z,99913.75
2023-03-28T22:37:45.668Z,99930.16
2023-03-28T22:40:33.049Z,99913.78
2023-03-28T22:43:20.094Z,99916.69
2023-03-28T22:46:07.284Z,99904.66
2023-03-28T22:48:58.069Z,99900.94
2023-03-28T22:51:48.366Z,99882.03
2023-03-28T22:54:37.073Z,99910.09
2023-03-28T22:57:24.268Z,99887.34
2023-03-28T23:03:33.455Z,99891.94
2023-03-28T23:06:20.669Z,99890.00
2023-03-28T23:09:08.668Z,99873.50
2023-03-28T23:11:56.047Z,99863.56
2023-03-28T23:14:43.243Z,99885.94
2023-03-28T23:17:30.342Z,99875.03
2023-03-28T23:20:19.249Z,99877.97
2023-03-28T23:23:06.912Z,99871.47
2023-03-28T23:25:53.972Z,99876.56
2023-03-28T23:28:41.164Z,99886.19
2023-03-28T23:31:28.525Z,99880.44
2023-03-28T23:34:16.472Z,99882.94
2023-03-28T23:37:04.189Z,99874.25
2023-03-28T23:39:51.476Z,99874.47
2023-03-28T23:42:38.533Z,99852.88
2023-03-28T23:45:25.942Z,99857.50
2023-03-28T23:48:13.313Z,99857.44
2023-03-28T23:51:04.328Z,99863.94
2023-03-28T23:53:51.737Z,99870.69
2023-03-28T23:56:39.071Z,99858.91
2023-03-28T23:59:26.285Z,99850.75
